Time;durP1;ratioP1;P1;durP2;ratioP2;P2;SDS_P1;SDS_P2;PMS_P1;PMS_P2;Temp;Humidity;BMP_temperature;BMP_pressure;BME280_temperature;BME280_humidity;BME280_pressure;Samples;Min_cycle;Max_cycle;Signal;HPM_P1;HPM_P2
2022/06/28 00:02:16;;;;;;;0.82;0.82;;;;;;;;;;4974754;28;20711;-62
2022/06/28 00:04:44;;;;;;;0.75;0.65;;;;;;;;;;4971789;28;20249;-62
2022/06/28 00:07:11;;;;;;;0.60;0.60;;;;;;;;;;4958423;28;20285;-62
2022/06/28 00:09:38;;;;;;;0.88;0.88;;;;;;;;;;4983972;28;20578;-62
2022/06/28 00:12:05;;;;;;;1.95;0.90;;;;;;;;;;4970932;28;20253;-62
2022/06/28 00:17:17;;;;;;;0.70;0.70;;;;;;;;;;4960403;28;20309;-63
2022/06/28 00:19:46;;;;;;;0.70;0.70;;;;;;;;;;4990914;28;20256;-63
2022/06/28 00:22:13;;;;;;;0.70;0.70;;;;;;;;;;4978900;28;20293;-62
2022/06/28 00:24:40;;;;;;;0.63;0.63;;;;;;;;;;4969667;28;20658;-62
2022/06/28 00:27:07;;;;;;;0.70;0.70;;;;;;;;;;4976809;28;20210;-63
2022/06/28 00:29:34;;;;;;;0.90;0.90;;;;;;;;;;4972081;28;20268;-63
2022/06/28 00:32:01;;;;;;;1.30;0.95;;;;;;;;;;4975536;28;20267;-63
2022/06/28 00:34:28;;;;;;;1.25;0.80;;;;;;;;;;4970968;28;20211;-63
2022/06/28 00:36:56;;;;;;;1.30;0.80;;;;;;;;;;4974388;28;21337;-63
2022/06/28 00:39:23;;;;;;;0.70;0.70;;;;;;;;;;4981434;28;20202;-63
2022/06/28 00:41:50;;;;;;;0.77;0.70;;;;;;;;;;4970015;28;20561;-62
2022/06/28 00:44:18;;;;;;;0.70;0.70;;;;;;;;;;4976930;28;20281;-62
2022/06/28 00:46:45;;;;;;;0.85;0.85;;;;;;;;;;4974033;28;20218;-62
2022/06/28 00:49:14;;;;;;;0.95;0.95;;;;;;;;;;4971570;28;20226;-62
2022/06/28 00:51:41;;;;;;;1.00;1.00;;;;;;;;;;4970366;28;20215;-62
2022/06/28 00:54:09;;;;;;;4.03;0.95;;;;;;;;;;4973681;28;20565;-62
2022/06/28 00:56:37;;;;;;;1.02;0.93;;;;;;;;;;4961550;28;20222;-62
2022/06/28 00:59:04;;;;;;;1.00;1.00;;;;;;;;;;4970098;28;20280;-62
2022/06/28 01:01:31;;;;;;;1.55;0.90;;;;;;;;;;4981460;28;20209;-63
2022/06/28 01:03:58;;;;;;;6.10;0.98;;;;;;;;;;4989368;28;20220;-63
2022/06/28 01:06:25;;;;;;;1.35;1.27;;;;;;;;;;4969758;28;20250;-62
2022/06/28 01:08:52;;;;;;;2.30;0.80;;;;;;;;;;4980553;28;20209;-63
2022/06/28 01:11:20;;;;;;;1.00;1.00;;;;;;;;;;4971055;28;20230;-62
2022/06/28 01:13:48;;;;;;;1.75;0.90;;;;;;;;;;4975835;28;20214;-63
2022/06/28 01:16:16;;;;;;;0.98;0.98;;;;;;;;;;4966484;28;20310;-62
2022/06/28 01:18:43;;;;;;;5.00;1.00;;;;;;;;;;4970454;28;20206;-63
2022/06/28 01:21:10;;;;;;;0.90;0.90;;;;;;;;;;4973545;28;20237;-63
2022/06/28 01:23:39;;;;;;;0.93;0.93;;;;;;;;;;4989658;28;20272;-62
2022/06/28 01:26:06;;;;;;;2.17;1.17;;;;;;;;;;4968139;28;20253;-63
2022/06/28 01:28:33;;;;;;;1.42;1.33;;;;;;;;;;4975193;28;20550;-62
2022/06/28 01:31:00;;;;;;;1.33;1.00;;;;;;;;;;4978857;28;20248;-62
2022/06/28 01:33:28;;;;;;;2.65;1.05;;;;;;;;;;4975996;28;20203;-63
2022/06/28 01:35:55;;;;;;;1.23;0.95;;;;;;;;;;4970721;28;20209;-63
2022/06/28 01:38:22;;;;;;;0.95;0.90;;;;;;;;;;4972444;28;20210;-63
2022/06/28 01:40:51;;;;;;;2.78;1.02;;;;;;;;;;4970361;28;20276;-63
2022/06/28 01:43:18;;;;;;;2.33;0.90;;;;;;;;;;4972050;28;20211;-62
2022/06/28 01:45:46;;;;;;;0.85;0.85;;;;;;;;;;4970049;28;20210;-63
2022/06/28 01:48:13;;;;;;;2.40;1.08;;;;;;;;;;4969750;28;20210;-63
2022/06/28 01:50:40;;;;;;;1.10;1.10;;;;;;;;;;4976519;28;20272;-63
2022/06/28 01:53:07;;;;;;;1.48;1.38;;;;;;;;;;4987052;28;20276;-63
2022/06/28 01:55:34;;;;;;;1.05;1.05;;;;;;;;;;4982354;28;20263;-62
2022/06/28 01:58:03;;;;;;;1.05;1.05;;;;;;;;;;4981639;28;20634;-63
2022/06/28 02:00:30;;;;;;;1.20;1.20;;;;;;;;;;4965325;28;20199;-62
2022/06/28 02:02:57;;;;;;;1.00;1.00;;;;;;;;;;4988392;28;20630;-62
2022/06/28 02:05:24;;;;;;;5.60;1.00;;;;;;;;;;4983972;28;20225;-62
2022/06/28 02:07:51;;;;;;;3.20;1.65;;;;;;;;;;4973528;28;20241;-62
2022/06/28 02:10:19;;;;;;;1.05;1.05;;;;;;;;;;4981787;28;20636;-62
2022/06/28 02:12:46;;;;;;;1.63;1.52;;;;;;;;;;4979210;28;20241;-62
2022/06/28 02:15:15;;;;;;;1.23;1.20;;;;;;;;;;4984874;28;20260;-62
2022/06/28 02:17:42;;;;;;;4.13;1.20;;;;;;;;;;4980527;28;20213;-62
2022/06/28 02:20:10;;;;;;;1.45;1.45;;;;;;;;;;4984976;28;20261;-62
2022/06/28 02:22:37;;;;;;;1.88;1.25;;;;;;;;;;4973801;28;20269;-62
2022/06/28 02:25:05;;;;;;;1.20;1.20;;;;;;;;;;4978783;28;20283;-62
2022/06/28 02:27:32;;;;;;;1.52;1.52;;;;;;;;;;4975995;28;20214;-63
2022/06/28 02:29:59;;;;;;;2.50;1.40;;;;;;;;;;4973089;28;20249;-63
2022/06/28 02:32:27;;;;;;;1.50;1.50;;;;;;;;;;4973436;28;20210;-62
2022/06/28 02:40:24;;;;;;;1.27;1.23;;;;;;;;;;4976975;28;20228;-62
2022/06/28 02:42:52;;;;;;;1.50;1.50;;;;;;;;;;4973097;28;20217;-62
2022/06/28 02:45:19;;;;;;;1.77;1.48;;;;;;;;;;4973913;28;20305;-62
2022/06/28 02:47:47;;;;;;;1.35;1.27;;;;;;;;;;4990841;28;20216;-62
2022/06/28 02:50:15;;;;;;;2.15;2.05;;;;;;;;;;4976765;28;20639;-63
2022/06/28 02:52:42;;;;;;;1.70;1.60;;;;;;;;;;4986990;28;20634;-62
2022/06/28 02:55:09;;;;;;;1.50;1.50;;;;;;;;;;4975819;28;20203;-62
2022/06/28 02:57:37;;;;;;;1.77;1.50;;;;;;;;;;4969015;28;20219;-62
2022/06/28 03:00:07;;;;;;;4.95;1.42;;;;;;;;;;4966876;28;20209;-62
2022/06/28 03:02:34;;;;;;;1.38;1.38;;;;;;;;;;4980679;28;20214;-62
2022/06/28 03:05:03;;;;;;;4.72;1.30;;;;;;;;;;4987871;28;20839;-62
2022/06/28 03:07:30;;;;;;;3.22;1.27;;;;;;;;;;4976162;28;20209;-62
2022/06/28 03:09:57;;;;;;;1.13;1.13;;;;;;;;;;4986596;28;20209;-62
2022/06/28 03:12:24;;;;;;;2.67;1.25;;;;;;;;;;4973278;28;20199;-62
2022/06/28 03:14:51;;;;;;;1.05;1.05;;;;;;;;;;4966967;28;20203;-62
2022/06/28 03:17:18;;;;;;;1.40;1.30;;;;;;;;;;4972069;28;20257;-62
2022/06/28 03:19:45;;;;;;;1.52;1.42;;;;;;;;;;4987962;28;20280;-62
2022/06/28 03:22:13;;;;;;;1.60;1.60;;;;;;;;;;4970473;28;20217;-63
2022/06/28 03:24:40;;;;;;;1.88;1.77;;;;;;;;;;4977738;28;20234;-62
2022/06/28 03:27:08;;;;;;;4.30;2.10;;;;;;;;;;4979964;28;20699;-63
2022/06/28 03:29:35;;;;;;;2.10;2.00;;;;;;;;;;4981404;28;20206;-62
2022/06/28 03:32:02;;;;;;;2.22;2.13;;;;;;;;;;4976256;28;20615;-62
2022/06/28 03:34:29;;;;;;;2.03;1.92;;;;;;;;;;4969313;28;20750;-62
2022/06/28 03:36:56;;;;;;;2.20;2.10;;;;;;;;;;4972540;28;20264;-62
2022/06/28 03:39:25;;;;;;;2.17;2.07;;;;;;;;;;4971131;28;20276;-62
2022/06/28 03:41:52;;;;;;;2.00;1.90;;;;;;;;;;4972873;28;20211;-62
2022/06/28 03:44:19;;;;;;;2.25;2.20;;;;;;;;;;4972429;28;20213;-62
2022/06/28 03:46:46;;;;;;;2.35;2.17;;;;;;;;;;4977362;28;20207;-62
2022/06/28 03:49:13;;;;;;;2.67;2.45;;;;;;;;;;4972311;28;20246;-62
2022/06/28 03:51:40;;;;;;;2.10;2.10;;;;;;;;;;4977805;28;20219;-62
2022/06/28 03:54:07;;;;;;;2.08;1.98;;;;;;;;;;4974300;28;20685;-62
2022/06/28 03:56:35;;;;;;;5.22;2.40;;;;;;;;;;4982357;28;20214;-62
2022/06/28 03:59:02;;;;;;;5.57;2.17;;;;;;;;;;4982060;28;20204;-62
2022/06/28 04:01:29;;;;;;;2.20;2.10;;;;;;;;;;4974008;28;20209;-62
2022/06/28 04:03:56;;;;;;;2.03;2.03;;;;;;;;;;4982258;28;20296;-62
2022/06/28 04:06:23;;;;;;;2.20;2.10;;;;;;;;;;4979415;28;20202;-62
2022/06/28 04:08:50;;;;;;;2.58;1.70;;;;;;;;;;4975855;28;20198;-62
2022/06/28 04:11:17;;;;;;;1.85;1.85;;;;;;;;;;4973781;28;20327;-63
2022/06/28 04:13:46;;;;;;;1.83;1.73;;;;;;;;;;4978220;28;20593;-62
2022/06/28 04:16:14;;;;;;;2.03;1.80;;;;;;;;;;4980419;28;20199;-62
2022/06/28 04:18:41;;;;;;;1.75;1.70;;;;;;;;;;4976267;28;20213;-62
2022/06/28 04:21:09;;;;;;;2.28;1.70;;;;;;;;;;4974828;28;20296;-64
2022/06/28 04:23:36;;;;;;;2.75;1.83;;;;;;;;;;4977388;28;20715;-63
2022/06/28 04:26:03;;;;;;;1.83;1.70;;;;;;;;;;4982395;28;20285;-62
2022/06/28 04:28:30;;;;;;;1.80;1.38;;;;;;;;;;4977703;28;20427;-63
2022/06/28 04:30:58;;;;;;;2.75;1.80;;;;;;;;;;4984402;28;20284;-62
2022/06/28 04:33:26;;;;;;;1.73;1.73;;;;;;;;;;4986552;28;20260;-63
2022/06/28 04:35:54;;;;;;;2.63;1.85;;;;;;;;;;4981054;28;20202;-62
2022/06/28 04:38:21;;;;;;;1.65;1.52;;;;;;;;;;4975527;28;20206;-63
2022/06/28 04:40:48;;;;;;;2.42;2.28;;;;;;;;;;4987414;28;20202;-62
2022/06/28 04:43:15;;;;;;;2.22;2.10;;;;;;;;;;4983473;28;20210;-62
2022/06/28 04:45:42;;;;;;;2.70;2.60;;;;;;;;;;4967065;28;20209;-62
2022/06/28 04:48:11;;;;;;;2.33;2.22;;;;;;;;;;4971607;28;20206;-62
2022/06/28 04:50:38;;;;;;;2.28;2.17;;;;;;;;;;4985491;28;20230;-62
2022/06/28 04:53:05;;;;;;;2.33;2.22;;;;;;;;;;4984337;28;20205;-61
2022/06/28 04:55:32;;;;;;;2.30;2.20;;;;;;;;;;4973775;28;20920;-61
2022/06/28 04:57:59;;;;;;;2.35;2.15;;;;;;;;;;4976958;28;20205;-61
2022/06/28 05:00:27;;;;;;;1.67;1.67;;;;;;;;;;4980091;28;20228;-61
2022/06/28 05:02:54;;;;;;;1.95;1.85;;;;;;;;;;4974574;28;20697;-61
2022/06/28 05:05:22;;;;;;;1.70;1.70;;;;;;;;;;4975488;28;20251;-61
2022/06/28 05:07:49;;;;;;;2.45;2.35;;;;;;;;;;4987484;28;20639;-61
2022/06/28 05:10:16;;;;;;;1.85;1.77;;;;;;;;;;4988642;28;20223;-61
2022/06/28 05:12:43;;;;;;;2.20;2.20;;;;;;;;;;4985317;28;20237;-63
2022/06/28 05:15:11;;;;;;;2.28;2.13;;;;;;;;;;4989912;28;20576;-61
2022/06/28 05:17:39;;;;;;;2.30;2.20;;;;;;;;;;4982579;28;20545;-62
2022/06/28 05:20:07;;;;;;;2.20;2.10;;;;;;;;;;4968728;28;20211;-61
2022/06/28 05:22:36;;;;;;;2.80;2.05;;;;;;;;;;4982405;28;20241;-61
2022/06/28 05:25:03;;;;;;;1.95;1.95;;;;;;;;;;4970160;28;20242;-58
2022/06/28 05:27:30;;;;;;;2.08;1.98;;;;;;;;;;4973883;28;20206;-62
2022/06/28 05:29:57;;;;;;;1.85;1.85;;;;;;;;;;4973901;28;20698;-61
2022/06/28 05:32:24;;;;;;;1.95;1.92;;;;;;;;;;4979057;28;20233;-62
2022/06/28 05:34:51;;;;;;;2.05;1.95;;;;;;;;;;4970727;28;20276;-61
2022/06/28 05:37:18;;;;;;;3.08;2.15;;;;;;;;;;4973017;28;20210;-61
2022/06/28 05:39:47;;;;;;;2.10;2.00;;;;;;;;;;4969698;28;20210;-61
2022/06/28 05:42:14;;;;;;;2.10;2.00;;;;;;;;;;4969500;28;20210;-61
2022/06/28 05:44:41;;;;;;;2.78;2.05;;;;;;;;;;4970445;28;20648;-61
2022/06/28 05:47:10;;;;;;;2.10;2.00;;;;;;;;;;4969589;28;20218;-60
2022/06/28 05:49:37;;;;;;;4.35;2.58;;;;;;;;;;4975279;28;20681;-60
2022/06/28 05:52:05;;;;;;;2.20;2.10;;;;;;;;;;4983165;28;20452;-61
2022/06/28 05:54:32;;;;;;;7.22;4.20;;;;;;;;;;4969955;28;20317;-62
2022/06/28 05:57:00;;;;;;;7.88;3.47;;;;;;;;;;4969318;28;20218;-62
2022/06/28 05:59:28;;;;;;;8.07;4.35;;;;;;;;;;4969691;28;20261;-62
2022/06/28 06:01:55;;;;;;;2.17;2.08;;;;;;;;;;4969394;28;20752;-62
2022/06/28 06:04:24;;;;;;;2.28;2.17;;;;;;;;;;4969434;28;20214;-62
2022/06/28 06:06:52;;;;;;;3.25;3.05;;;;;;;;;;4969207;28;20631;-61
2022/06/28 06:09:19;;;;;;;2.35;2.25;;;;;;;;;;4969374;28;20218;-61
2022/06/28 06:11:47;;;;;;;2.53;2.42;;;;;;;;;;4968777;28;20226;-61
2022/06/28 06:14:15;;;;;;;2.45;2.28;;;;;;;;;;4969264;28;20249;-61
2022/06/28 06:16:42;;;;;;;2.30;2.20;;;;;;;;;;4969627;28;20211;-61
2022/06/28 06:19:09;;;;;;;2.28;2.17;;;;;;;;;;4968192;28;20206;-65
2022/06/28 06:21:36;;;;;;;2.63;2.53;;;;;;;;;;4968491;28;20207;-61
2022/06/28 06:24:04;;;;;;;2.28;2.20;;;;;;;;;;4968619;28;20254;-62
2022/06/28 06:26:31;;;;;;;2.53;2.33;;;;;;;;;;4968968;28;20221;-62
2022/06/28 06:28:58;;;;;;;3.50;2.20;;;;;;;;;;4967713;28;20218;-62
2022/06/28 06:31:27;;;;;;;2.03;1.80;;;;;;;;;;4969526;28;20254;-62
2022/06/28 06:33:54;;;;;;;1.80;1.80;;;;;;;;;;4969421;28;20215;-61
2022/06/28 06:36:22;;;;;;;1.60;1.58;;;;;;;;;;4969025;28;20618;-61
2022/06/28 06:38:49;;;;;;;1.67;1.67;;;;;;;;;;4972751;28;20210;-61
2022/06/28 06:41:16;;;;;;;1.73;1.63;;;;;;;;;;4970829;28;20215;-62
2022/06/28 06:43:43;;;;;;;3.10;1.73;;;;;;;;;;4972654;28;20218;-62
2022/06/28 06:46:10;;;;;;;1.38;1.38;;;;;;;;;;4972862;28;20218;-61
2022/06/28 06:48:38;;;;;;;1.80;1.70;;;;;;;;;;4972837;28;20219;-61
2022/06/28 06:51:05;;;;;;;2.20;1.50;;;;;;;;;;4971701;28;20265;-62
2022/06/28 06:53:33;;;;;;;1.90;1.50;;;;;;;;;;4972093;28;20261;-62
2022/06/28 06:56:00;;;;;;;1.40;1.40;;;;;;;;;;4970382;28;20218;-62
2022/06/28 06:58:27;;;;;;;1.60;1.50;;;;;;;;;;4972426;28;20261;-62
2022/06/28 07:00:54;;;;;;;1.70;1.60;;;;;;;;;;4972451;28;20632;-62
2022/06/28 07:03:21;;;;;;;1.70;1.60;;;;;;;;;;4972318;28;20554;-62
2022/06/28 07:05:50;;;;;;;1.60;1.58;;;;;;;;;;4972248;28;20245;-62
2022/06/28 07:08:17;;;;;;;1.30;1.30;;;;;;;;;;4972178;28;20222;-62
2022/06/28 07:10:44;;;;;;;1.67;1.67;;;;;;;;;;4971969;28;20214;-61
2022/06/28 07:13:11;;;;;;;1.63;1.63;;;;;;;;;;4972371;28;20257;-62
2022/06/28 07:15:38;;;;;;;1.90;1.80;;;;;;;;;;4971940;28;20210;-61
2022/06/28 07:18:05;;;;;;;2.50;1.50;;;;;;;;;;4972046;28;20221;-61
2022/06/28 07:20:32;;;;;;;1.75;1.45;;;;;;;;;;4971918;28;20745;-62
2022/06/28 07:23:00;;;;;;;1.70;1.60;;;;;;;;;;4969993;28;20234;-64
2022/06/28 07:25:27;;;;;;;1.70;1.60;;;;;;;;;;4972236;28;20245;-64
2022/06/28 07:27:55;;;;;;;1.75;1.65;;;;;;;;;;4969530;28;20277;-61
2022/06/28 07:30:22;;;;;;;1.67;1.40;;;;;;;;;;4972540;28;20272;-62
2022/06/28 07:32:49;;;;;;;1.40;1.40;;;;;;;;;;4972429;28;20222;-62
2022/06/28 07:35:18;;;;;;;1.90;1.80;;;;;;;;;;4972570;28;20237;-62
2022/06/28 07:37:46;;;;;;;1.42;1.30;;;;;;;;;;4970452;28;20415;-61
2022/06/28 07:40:15;;;;;;;1.20;1.20;;;;;;;;;;4972349;28;20593;-61
2022/06/28 07:42:42;;;;;;;1.10;1.10;;;;;;;;;;4972458;28;20214;-60
2022/06/28 07:45:09;;;;;;;1.92;1.20;;;;;;;;;;4970552;28;20210;-63
2022/06/28 07:47:36;;;;;;;1.10;1.10;;;;;;;;;;4972003;28;20211;-62
2022/06/28 07:52:48;;;;;;;1.00;1.00;;;;;;;;;;4972048;28;20245;-63
2022/06/28 07:55:17;;;;;;;1.85;1.13;;;;;;;;;;4970341;28;20210;-63
2022/06/28 07:57:44;;;;;;;0.93;0.82;;;;;;;;;;4972280;28;20625;-63
2022/06/28 08:00:11;;;;;;;1.00;1.00;;;;;;;;;;4970150;28;20214;-62
2022/06/28 08:02:38;;;;;;;0.63;0.63;;;;;;;;;;4971495;28;20258;-63
2022/06/28 08:05:06;;;;;;;1.98;1.13;;;;;;;;;;4971959;28;20221;-62
2022/06/28 08:07:33;;;;;;;0.98;0.98;;;;;;;;;;4971401;28;20631;-63
2022/06/28 08:10:00;;;;;;;1.20;1.20;;;;;;;;;;4969749;28;20221;-61
2022/06/28 08:12:28;;;;;;;1.15;1.15;;;;;;;;;;4971666;28;20644;-66
2022/06/28 08:14:55;;;;;;;1.25;1.20;;;;;;;;;;4972233;28;20245;-61
2022/06/28 08:17:22;;;;;;;0.80;0.80;;;;;;;;;;4971322;28;20346;-62
2022/06/28 08:19:49;;;;;;;0.90;0.90;;;;;;;;;;4971736;28;20674;-62
2022/06/28 08:22:16;;;;;;;0.90;0.90;;;;;;;;;;4967870;28;20222;-62
2022/06/28 08:24:43;;;;;;;0.90;0.90;;;;;;;;;;4970920;28;20716;-61
2022/06/28 08:27:10;;;;;;;1.35;1.27;;;;;;;;;;4970670;28;20215;-62
2022/06/28 08:29:42;;;;;;;1.35;1.00;;;;;;;;;;4971340;28;20257;-62
2022/06/28 08:32:09;;;;;;;1.35;0.88;;;;;;;;;;4971214;28;20743;-62
2022/06/28 08:34:36;;;;;;;1.58;0.77;;;;;;;;;;4971409;28;20214;-62
2022/06/28 08:37:04;;;;;;;0.68;0.68;;;;;;;;;;4970984;28;20632;-62
2022/06/28 08:39:31;;;;;;;0.63;0.60;;;;;;;;;;4970902;28;20214;-63
2022/06/28 08:42:01;;;;;;;0.57;0.57;;;;;;;;;;4971249;28;20211;-63
2022/06/28 08:44:28;;;;;;;0.80;0.80;;;;;;;;;;4968377;28;20362;-62
2022/06/28 08:46:57;;;;;;;0.70;0.70;;;;;;;;;;4970487;28;20210;-60
2022/06/28 08:49:29;;;;;;;0.90;0.90;;;;;;;;;;4970359;28;20238;-62
2022/06/28 08:51:56;;;;;;;0.85;0.80;;;;;;;;;;4959129;28;20230;-62
2022/06/28 08:54:23;;;;;;;0.73;0.70;;;;;;;;;;4968168;28;20219;-62
2022/06/28 08:56:50;;;;;;;0.70;0.70;;;;;;;;;;4970290;28;20210;-62
2022/06/28 08:59:18;;;;;;;1.60;0.60;;;;;;;;;;4968703;28;20210;-62
2022/06/28 09:01:45;;;;;;;5.68;0.90;;;;;;;;;;4967551;28;20661;-62
2022/06/28 09:04:13;;;;;;;2.38;0.60;;;;;;;;;;4967677;28;20207;-62
2022/06/28 09:06:40;;;;;;;1.65;0.70;;;;;;;;;;4969248;28;20245;-62
2022/06/28 09:09:07;;;;;;;0.80;0.80;;;;;;;;;;4969431;28;20214;-62
2022/06/28 09:11:38;;;;;;;1.20;0.80;;;;;;;;;;4966942;28;20703;-62
2022/06/28 09:14:20;;;;;;;0.70;0.70;;;;;;;;;;4969858;28;20238;-62
2022/06/28 09:16:47;;;;;;;1.92;0.93;;;;;;;;;;4969930;28;20206;-62
2022/06/28 09:19:16;;;;;;;0.68;0.68;;;;;;;;;;4969589;28;20218;-63
2022/06/28 09:21:43;;;;;;;0.47;0.47;;;;;;;;;;4969700;28;20216;-62
2022/06/28 09:24:10;;;;;;;0.85;0.85;;;;;;;;;;4969049;28;20629;-62
2022/06/28 09:26:38;;;;;;;0.70;0.70;;;;;;;;;;4969161;28;20222;-62
2022/06/28 09:29:12;;;;;;;0.70;0.70;;;;;;;;;;4969844;28;20214;-61
2022/06/28 09:31:39;;;;;;;0.68;0.68;;;;;;;;;;4962827;28;20218;-62
2022/06/28 09:34:07;;;;;;;1.10;0.63;;;;;;;;;;4969250;28;20594;-62
2022/06/28 09:36:36;;;;;;;0.73;0.73;;;;;;;;;;4969348;28;20214;-61
2022/06/28 09:39:13;;;;;;;0.50;0.50;;;;;;;;;;4967465;28;20265;-62
2022/06/28 09:41:43;;;;;;;0.30;0.30;;;;;;;;;;4969235;28;20641;-62
2022/06/28 09:44:10;;;;;;;0.47;0.47;;;;;;;;;;4969581;28;20198;-61
2022/06/28 09:46:38;;;;;;;0.50;0.50;;;;;;;;;;4968820;28;20261;-61
2022/06/28 09:49:05;;;;;;;1.25;0.52;;;;;;;;;;4969067;28;20257;-62
2022/06/28 09:51:33;;;;;;;0.45;0.45;;;;;;;;;;4968894;28;20210;-62
2022/06/28 09:54:03;;;;;;;0.38;0.38;;;;;;;;;;4969252;28;20744;-61
2022/06/28 09:56:32;;;;;;;0.65;0.30;;;;;;;;;;4969280;28;20210;-61
2022/06/28 09:58:59;;;;;;;0.47;0.47;;;;;;;;;;4969296;28;20755;-61
2022/06/28 10:01:26;;;;;;;0.90;0.30;;;;;;;;;;4967314;28;20210;-61
2022/06/28 10:03:54;;;;;;;0.50;0.50;;;;;;;;;;4967774;28;20770;-61
2022/06/28 10:06:21;;;;;;;0.55;0.50;;;;;;;;;;4969080;28;20261;-61
2022/06/28 10:08:49;;;;;;;0.82;0.50;;;;;;;;;;4969026;28;20276;-61
2022/06/28 10:11:18;;;;;;;0.30;0.30;;;;;;;;;;4968905;28;20627;-62
2022/06/28 10:16:38;;;;;;;0.63;0.40;;;;;;;;;;4971090;28;20683;-61
2022/06/28 10:19:06;;;;;;;0.73;0.35;;;;;;;;;;4972473;28;20934;-61
2022/06/28 10:21:46;;;;;;;0.32;0.32;;;;;;;;;;4971170;28;20556;-61
2022/06/28 10:24:14;;;;;;;0.30;0.30;;;;;;;;;;4970913;28;20695;-62
2022/06/28 10:26:45;;;;;;;0.40;0.40;;;;;;;;;;4973064;28;20268;-61
2022/06/28 10:29:12;;;;;;;0.43;0.43;;;;;;;;;;4973254;28;20236;-61
2022/06/28 10:31:40;;;;;;;1.42;0.50;;;;;;;;;;4973108;28;20206;-62
2022/06/28 10:34:09;;;;;;;0.45;0.45;;;;;;;;;;4973031;28;20233;-62
2022/06/28 10:36:43;;;;;;;0.40;0.40;;;;;;;;;;4973018;28;20225;-60
2022/06/28 10:39:15;;;;;;;0.52;0.52;;;;;;;;;;4973041;28;20743;-62
2022/06/28 10:41:43;;;;;;;0.40;0.40;;;;;;;;;;4972821;28;20845;-62
2022/06/28 10:44:12;;;;;;;0.47;0.40;;;;;;;;;;4971057;28;20210;-62
2022/06/28 10:46:39;;;;;;;0.50;0.50;;;;;;;;;;4972650;28;20209;-62
2022/06/28 10:49:07;;;;;;;1.15;0.40;;;;;;;;;;4972391;28;20210;-62
2022/06/28 10:51:35;;;;;;;0.68;0.52;;;;;;;;;;4971862;28;20207;-62
2022/06/28 10:54:05;;;;;;;0.35;0.35;;;;;;;;;;4972494;28;20242;-62
2022/06/28 10:56:32;;;;;;;0.57;0.57;;;;;;;;;;4972751;28;20249;-61
2022/06/28 10:58:59;;;;;;;0.50;0.38;;;;;;;;;;4972963;28;20214;-61
2022/06/28 11:01:45;;;;;;;0.65;0.52;;;;;;;;;;4970928;28;20228;-61
2022/06/28 11:04:14;;;;;;;0.47;0.47;;;;;;;;;;4971090;28;20214;-62
2022/06/28 11:06:41;;;;;;;1.85;0.40;;;;;;;;;;4972448;28;20210;-61
2022/06/28 11:09:10;;;;;;;0.30;0.30;;;;;;;;;;4973115;28;20223;-61
2022/06/28 11:11:57;;;;;;;0.47;0.40;;;;;;;;;;4972856;28;20571;-61
2022/06/28 11:14:30;;;;;;;0.43;0.40;;;;;;;;;;4977803;28;20225;-61
2022/06/28 11:16:58;;;;;;;0.40;0.40;;;;;;;;;;4977342;28;20218;-61
2022/06/28 11:19:26;;;;;;;0.40;0.40;;;;;;;;;;4991095;28;20217;-62
2022/06/28 11:21:55;;;;;;;0.65;0.65;;;;;;;;;;4971960;28;20260;-60
2022/06/28 11:24:23;;;;;;;0.63;0.45;;;;;;;;;;4971622;28;20262;-60
2022/06/28 11:29:35;;;;;;;0.73;0.73;;;;;;;;;;4972552;28;20551;-60
2022/06/28 11:32:02;;;;;;;0.52;0.40;;;;;;;;;;4972290;28;20269;-60
2022/06/28 11:34:31;;;;;;;1.75;0.47;;;;;;;;;;4972391;28;20297;-61
2022/06/28 11:36:59;;;;;;;0.52;0.50;;;;;;;;;;4971346;28;20273;-59
2022/06/28 11:39:26;;;;;;;0.75;0.40;;;;;;;;;;4972412;28;20210;-59
2022/06/28 11:41:54;;;;;;;0.40;0.40;;;;;;;;;;4970861;28;20217;-63
2022/06/28 11:44:22;;;;;;;0.45;0.40;;;;;;;;;;4968902;28;20559;-60
2022/06/28 11:46:50;;;;;;;0.30;0.30;;;;;;;;;;4969084;28;20685;-60
2022/06/28 11:49:27;;;;;;;0.40;0.40;;;;;;;;;;4957717;28;20301;-60
2022/06/28 11:51:55;;;;;;;0.85;0.60;;;;;;;;;;4968221;28;20218;-61
2022/06/28 11:54:22;;;;;;;0.52;0.40;;;;;;;;;;4957248;28;20287;-61
2022/06/28 11:56:49;;;;;;;2.47;0.52;;;;;;;;;;4966863;28;20222;-60
2022/06/28 11:59:17;;;;;;;0.75;0.40;;;;;;;;;;4969239;28;20214;-61
2022/06/28 12:01:44;;;;;;;0.30;0.30;;;;;;;;;;4962011;28;20223;-60
2022/06/28 12:04:12;;;;;;;0.93;0.55;;;;;;;;;;4968603;28;20217;-60
2022/06/28 12:06:42;;;;;;;1.45;0.40;;;;;;;;;;4975702;28;20300;-59
2022/06/28 12:09:11;;;;;;;0.45;0.45;;;;;;;;;;4967193;28;20618;-60
2022/06/28 12:11:40;;;;;;;2.22;0.40;;;;;;;;;;4968622;28;20561;-60
2022/06/28 12:14:08;;;;;;;0.50;0.40;;;;;;;;;;4969336;28;20316;-60
2022/06/28 12:16:36;;;;;;;0.30;0.30;;;;;;;;;;4968250;28;20253;-60
2022/06/28 12:19:05;;;;;;;0.32;0.32;;;;;;;;;;4967084;28;20214;-60
2022/06/28 12:21:32;;;;;;;0.55;0.43;;;;;;;;;;4967969;28;20661;-60
2022/06/28 12:23:59;;;;;;;0.40;0.40;;;;;;;;;;4965568;28;20261;-60
2022/06/28 12:26:40;;;;;;;2.05;0.47;;;;;;;;;;4968207;28;20269;-61
2022/06/28 12:29:07;;;;;;;0.50;0.50;;;;;;;;;;4966451;28;20221;-60
2022/06/28 12:31:34;;;;;;;0.40;0.40;;;;;;;;;;4966272;28;20214;-60
2022/06/28 12:34:06;;;;;;;1.38;0.40;;;;;;;;;;4962918;28;20234;-61
2022/06/28 12:36:33;;;;;;;4.38;0.43;;;;;;;;;;4963838;28;20210;-60
2022/06/28 12:39:00;;;;;;;0.40;0.40;;;;;;;;;;4964549;28;20258;-60
2022/06/28 12:41:27;;;;;;;0.45;0.45;;;;;;;;;;4970338;28;20218;-60
2022/06/28 12:43:55;;;;;;;1.20;0.30;;;;;;;;;;4961915;28;20218;-60
2022/06/28 12:46:22;;;;;;;0.55;0.40;;;;;;;;;;4965245;28;20638;-60
2022/06/28 12:48:49;;;;;;;0.55;0.50;;;;;;;;;;4966508;28;20942;-61
2022/06/28 12:51:16;;;;;;;0.30;0.30;;;;;;;;;;4961188;28;20213;-72
2022/06/28 12:56:19;;;;;;;0.30;0.30;;;;;;;;;;5472235;22;20225;-61
2022/06/28 12:58:47;;;;;;;0.50;0.50;;;;;;;;;;5000698;28;20221;-61
2022/06/28 13:01:15;;;;;;;0.50;0.50;;;;;;;;;;5006423;28;20244;-61
2022/06/28 13:03:43;;;;;;;0.50;0.50;;;;;;;;;;5006083;28;20679;-61
2022/06/28 13:06:10;;;;;;;2.08;0.52;;;;;;;;;;5006378;28;20205;-61
2022/06/28 13:08:37;;;;;;;0.50;0.50;;;;;;;;;;5006337;28;20299;-61
2022/06/28 13:11:04;;;;;;;0.45;0.45;;;;;;;;;;5006377;28;20271;-61
2022/06/28 13:13:32;;;;;;;1.05;0.55;;;;;;;;;;5006240;28;20279;-62
2022/06/28 13:16:00;;;;;;;0.40;0.40;;;;;;;;;;5000177;28;20208;-61
2022/06/28 13:18:29;;;;;;;0.32;0.32;;;;;;;;;;5004836;28;20213;-60
2022/06/28 13:20:56;;;;;;;1.52;0.75;;;;;;;;;;4997875;28;20283;-60
2022/06/28 13:23:24;;;;;;;0.52;0.45;;;;;;;;;;4997632;28;20209;-60
2022/06/28 13:25:51;;;;;;;0.40;0.40;;;;;;;;;;5000801;28;20217;-60
2022/06/28 13:28:18;;;;;;;0.40;0.40;;;;;;;;;;4994607;28;20263;-60
2022/06/28 13:30:45;;;;;;;0.30;0.30;;;;;;;;;;5002176;28;20213;-60
2022/06/28 13:33:13;;;;;;;0.40;0.40;;;;;;;;;;5006868;28;20213;-60
2022/06/28 13:35:43;;;;;;;0.40;0.40;;;;;;;;;;5001466;28;20683;-61
2022/06/28 13:38:10;;;;;;;0.43;0.43;;;;;;;;;;5005760;28;20287;-61
2022/06/28 13:40:37;;;;;;;0.40;0.40;;;;;;;;;;5006449;28;20255;-61
2022/06/28 13:43:32;;;;;;;0.30;0.30;;;;;;;;;;5006602;28;20893;-61
2022/06/28 13:45:52;;;;;;;0.57;0.57;;;;;;;;;;5006366;28;20211;-61
2022/06/28 13:48:19;;;;;;;0.40;0.40;;;;;;;;;;5006388;28;20694;-60
2022/06/28 13:50:47;;;;;;;0.50;0.50;;;;;;;;;;5006658;28;20212;-60
2022/06/28 13:53:16;;;;;;;0.40;0.40;;;;;;;;;;5005602;28;20197;-60
2022/06/28 13:55:44;;;;;;;2.80;0.50;;;;;;;;;;4988672;28;20605;-60
2022/06/28 13:58:12;;;;;;;0.40;0.40;;;;;;;;;;4986479;28;20235;-60
2022/06/28 14:00:39;;;;;;;0.47;0.40;;;;;;;;;;4981287;28;20206;-60
2022/06/28 14:03:06;;;;;;;1.05;0.47;;;;;;;;;;4986561;28;20726;-61
2022/06/28 14:05:33;;;;;;;1.08;0.30;;;;;;;;;;4987032;28;20435;-60
2022/06/28 14:08:02;;;;;;;0.63;0.30;;;;;;;;;;4987245;28;20209;-60
2022/06/28 14:10:29;;;;;;;0.30;0.30;;;;;;;;;;4986947;28;20216;-60
2022/06/28 14:12:57;;;;;;;0.43;0.40;;;;;;;;;;4985397;28;20201;-63
2022/06/28 14:15:24;;;;;;;0.30;0.30;;;;;;;;;;4987026;28;20234;-60
2022/06/28 14:17:51;;;;;;;0.40;0.40;;;;;;;;;;4986718;28;20216;-60
2022/06/28 14:20:19;;;;;;;0.40;0.40;;;;;;;;;;4987080;28;20778;-61
2022/06/28 14:22:46;;;;;;;0.30;0.30;;;;;;;;;;4986981;28;20210;-60
2022/06/28 14:25:14;;;;;;;0.50;0.50;;;;;;;;;;4986320;28;20676;-60
2022/06/28 14:27:42;;;;;;;0.85;0.40;;;;;;;;;;4985969;28;20210;-60
2022/06/28 14:30:10;;;;;;;0.55;0.55;;;;;;;;;;4987059;28;20301;-61
2022/06/28 14:32:37;;;;;;;0.50;0.50;;;;;;;;;;4986503;28;20214;-61
2022/06/28 14:35:05;;;;;;;0.40;0.40;;;;;;;;;;4986684;28;20308;-61
2022/06/28 14:37:32;;;;;;;0.50;0.50;;;;;;;;;;4985746;28;20261;-61
2022/06/28 14:39:59;;;;;;;2.13;0.60;;;;;;;;;;4986530;28;20672;-61
2022/06/28 14:42:28;;;;;;;0.60;0.60;;;;;;;;;;4986277;28;20210;-61
2022/06/28 14:44:55;;;;;;;0.40;0.40;;;;;;;;;;4985796;28;20206;-60
2022/06/28 14:47:22;;;;;;;0.50;0.50;;;;;;;;;;4986044;28;20271;-61
2022/06/28 14:49:49;;;;;;;0.63;0.50;;;;;;;;;;4986603;28;20733;-60
2022/06/28 14:52:19;;;;;;;0.40;0.40;;;;;;;;;;4986432;28;20221;-60
2022/06/28 14:54:47;;;;;;;1.45;0.50;;;;;;;;;;4986367;28;20245;-60
2022/06/28 14:57:14;;;;;;;1.05;0.65;;;;;;;;;;4987386;28;20319;-60
2022/06/28 14:59:42;;;;;;;0.55;0.40;;;;;;;;;;4989892;28;20288;-60
2022/06/28 15:02:09;;;;;;;0.47;0.47;;;;;;;;;;4989451;28;20209;-61
2022/06/28 15:04:36;;;;;;;1.23;0.70;;;;;;;;;;4989976;28;20236;-61
2022/06/28 15:07:04;;;;;;;0.60;0.60;;;;;;;;;;4990075;28;20221;-60